sensor_id;sensor_type;location;lat;lon;timestamp;P1;durP1;ratioP1;P2;durP2;ratioP2
26062;SDS011;13837;48.562;12.108;2023-08-17T00:01:47;11.93;;;10.82;;
26062;SDS011;13837;48.562;12.108;2023-08-17T00:04:13;12.98;;;11.50;;
26062;SDS011;13837;48.562;12.108;2023-08-17T00:06:39;11.20;;;10.15;;
26062;SDS011;13837;48.562;12.108;2023-08-17T00:09:06;12.68;;;10.82;;
26062;SDS011;13837;48.562;12.108;2023-08-17T00:11:32;13.32;;;10.80;;
26062;SDS011;13837;48.562;12.108;2023-08-17T00:13:58;11.73;;;10.52;;
26062;SDS011;13837;48.562;12.108;2023-08-17T00:16:25;12.75;;;11.45;;
26062;SDS011;13837;48.562;12.108;2023-08-17T00:18:51;12.00;;;10.90;;
26062;SDS011;13837;48.562;12.108;2023-08-17T00:21:17;13.40;;;10.40;;
26062;SDS011;13837;48.562;12.108;2023-08-17T00:23:43;12.50;;;11.30;;
26062;SDS011;13837;48.562;12.108;2023-08-17T00:26:09;11.40;;;10.30;;
26062;SDS011;13837;48.562;12.108;2023-08-17T00:28:35;13.77;;;11.82;;
26062;SDS011;13837;48.562;12.108;2023-08-17T00:31:01;12.77;;;11.48;;
26062;SDS011;13837;48.562;12.108;2023-08-17T00:33:29;12.18;;;11.07;;
26062;SDS011;13837;48.562;12.108;2023-08-17T00:35:55;12.38;;;11.07;;
26062;SDS011;13837;48.562;12.108;2023-08-17T00:38:21;11.70;;;10.57;;
26062;SDS011;13837;48.562;12.108;2023-08-17T00:40:47;13.27;;;11.60;;
26062;SDS011;13837;48.562;12.108;2023-08-17T00:43:13;13.77;;;12.48;;
26062;SDS011;13837;48.562;12.108;2023-08-17T00:45:40;14.18;;;12.68;;
26062;SDS011;13837;48.562;12.108;2023-08-17T00:50:35;13.60;;;12.30;;
26062;SDS011;13837;48.562;12.108;2023-08-17T00:53:01;13.82;;;12.43;;
26062;SDS011;13837;48.562;12.108;2023-08-17T00:55:28;14.07;;;12.57;;
26062;SDS011;13837;48.562;12.108;2023-08-17T00:57:55;12.95;;;11.75;;
26062;SDS011;13837;48.562;12.108;2023-08-17T01:00:23;12.73;;;11.43;;
26062;SDS011;13837;48.562;12.108;2023-08-17T01:02:50;13.60;;;12.20;;
26062;SDS011;13837;48.562;12.108;2023-08-17T01:05:16;14.60;;;11.45;;
26062;SDS011;13837;48.562;12.108;2023-08-17T01:07:42;13.13;;;11.70;;
26062;SDS011;13837;48.562;12.108;2023-08-17T01:10:09;14.45;;;11.15;;
26062;SDS011;13837;48.562;12.108;2023-08-17T01:17:39;15.07;;;11.57;;
26062;SDS011;13837;48.562;12.108;2023-08-17T01:20:06;12.75;;;11.45;;
26062;SDS011;13837;48.562;12.108;2023-08-17T01:22:40;14.20;;;11.65;;
26062;SDS011;13837;48.562;12.108;2023-08-17T01:25:07;14.55;;;12.70;;
26062;SDS011;13837;48.562;12.108;2023-08-17T01:27:40;14.00;;;12.50;;
26062;SDS011;13837;48.562;12.108;2023-08-17T01:30:07;13.25;;;11.50;;
26062;SDS011;13837;48.562;12.108;2023-08-17T01:32:36;12.73;;;11.40;;
26062;SDS011;13837;48.562;12.108;2023-08-17T01:35:37;13.40;;;11.75;;
26062;SDS011;13837;48.562;12.108;2023-08-17T01:37:56;13.52;;;12.13;;
26062;SDS011;13837;48.562;12.108;2023-08-17T01:40:24;14.52;;;12.40;;
26062;SDS011;13837;48.562;12.108;2023-08-17T01:42:51;13.85;;;11.68;;
26062;SDS011;13837;48.562;12.108;2023-08-17T01:45:20;12.77;;;11.57;;
26062;SDS011;13837;48.562;12.108;2023-08-17T01:47:46;12.10;;;10.90;;
26062;SDS011;13837;48.562;12.108;2023-08-17T01:50:12;11.75;;;10.57;;
26062;SDS011;13837;48.562;12.108;2023-08-17T01:52:38;13.02;;;11.63;;
26062;SDS011;13837;48.562;12.108;2023-08-17T01:55:05;12.45;;;11.10;;
26062;SDS011;13837;48.562;12.108;2023-08-17T01:57:31;14.38;;;12.85;;
26062;SDS011;13837;48.562;12.108;2023-08-17T01:59:57;13.85;;;12.45;;
26062;SDS011;13837;48.562;12.108;2023-08-17T02:02:23;15.38;;;13.27;;
26062;SDS011;13837;48.562;12.108;2023-08-17T02:04:49;14.07;;;12.77;;
26062;SDS011;13837;48.562;12.108;2023-08-17T02:07:15;13.80;;;12.43;;
26062;SDS011;13837;48.562;12.108;2023-08-17T02:09:41;13.52;;;12.23;;
26062;SDS011;13837;48.562;12.108;2023-08-17T02:12:07;16.23;;;11.68;;
26062;SDS011;13837;48.562;12.108;2023-08-17T02:14:33;14.60;;;13.13;;
26062;SDS011;13837;48.562;12.108;2023-08-17T02:16:59;15.80;;;14.00;;
26062;SDS011;13837;48.562;12.108;2023-08-17T02:19:26;14.63;;;12.23;;
26062;SDS011;13837;48.562;12.108;2023-08-17T02:21:52;15.20;;;13.23;;
26062;SDS011;13837;48.562;12.108;2023-08-17T02:24:18;15.68;;;14.18;;
26062;SDS011;13837;48.562;12.108;2023-08-17T02:26:44;13.93;;;12.40;;
26062;SDS011;13837;48.562;12.108;2023-08-17T02:29:10;14.88;;;13.35;;
26062;SDS011;13837;48.562;12.108;2023-08-17T02:31:36;12.88;;;11.73;;
26062;SDS011;13837;48.562;12.108;2023-08-17T02:34:03;14.00;;;12.55;;
26062;SDS011;13837;48.562;12.108;2023-08-17T02:36:30;14.38;;;12.98;;
26062;SDS011;13837;48.562;12.108;2023-08-17T02:38:56;16.25;;;13.95;;
26062;SDS011;13837;48.562;12.108;2023-08-17T02:41:23;15.43;;;13.93;;
26062;SDS011;13837;48.562;12.108;2023-08-17T02:43:49;15.52;;;13.90;;
26062;SDS011;13837;48.562;12.108;2023-08-17T02:46:15;15.25;;;13.32;;
26062;SDS011;13837;48.562;12.108;2023-08-17T02:48:41;15.68;;;12.32;;
26062;SDS011;13837;48.562;12.108;2023-08-17T02:51:07;15.43;;;13.93;;
26062;SDS011;13837;48.562;12.108;2023-08-17T02:53:33;14.23;;;12.82;;
26062;SDS011;13837;48.562;12.108;2023-08-17T02:55:59;13.20;;;11.90;;
26062;SDS011;13837;48.562;12.108;2023-08-17T02:58:26;13.68;;;12.32;;
26062;SDS011;13837;48.562;12.108;2023-08-17T03:00:54;14.10;;;12.60;;
26062;SDS011;13837;48.562;12.108;2023-08-17T03:03:20;14.95;;;13.35;;
26062;SDS011;13837;48.562;12.108;2023-08-17T03:05:46;15.02;;;13.43;;
26062;SDS011;13837;48.562;12.108;2023-08-17T03:08:12;15.68;;;13.68;;
26062;SDS011;13837;48.562;12.108;2023-08-17T03:10:38;15.05;;;13.45;;
26062;SDS011;13837;48.562;12.108;2023-08-17T03:13:04;14.73;;;13.23;;
26062;SDS011;13837;48.562;12.108;2023-08-17T03:15:30;16.75;;;12.52;;
26062;SDS011;13837;48.562;12.108;2023-08-17T03:17:56;14.30;;;12.85;;
26062;SDS011;13837;48.562;12.108;2023-08-17T03:20:23;15.25;;;13.02;;
26062;SDS011;13837;48.562;12.108;2023-08-17T03:22:49;15.48;;;13.88;;
26062;SDS011;13837;48.562;12.108;2023-08-17T03:25:15;15.00;;;13.57;;
26062;SDS011;13837;48.562;12.108;2023-08-17T03:27:42;14.35;;;12.80;;
26062;SDS011;13837;48.562;12.108;2023-08-17T03:30:08;14.90;;;13.35;;
26062;SDS011;13837;48.562;12.108;2023-08-17T03:32:34;14.52;;;13.02;;
26062;SDS011;13837;48.562;12.108;2023-08-17T03:35:00;15.45;;;13.82;;
26062;SDS011;13837;48.562;12.108;2023-08-17T03:37:26;15.00;;;13.63;;
26062;SDS011;13837;48.562;12.108;2023-08-17T03:39:52;16.15;;;14.63;;
26062;SDS011;13837;48.562;12.108;2023-08-17T03:42:18;15.60;;;13.73;;
26062;SDS011;13837;48.562;12.108;2023-08-17T03:44:44;15.32;;;13.82;;
26062;SDS011;13837;48.562;12.108;2023-08-17T03:47:10;15.38;;;14.02;;
26062;SDS011;13837;48.562;12.108;2023-08-17T03:49:36;15.15;;;13.60;;
26062;SDS011;13837;48.562;12.108;2023-08-17T03:52:02;14.90;;;13.40;;
26062;SDS011;13837;48.562;12.108;2023-08-17T03:54:29;15.40;;;13.73;;
26062;SDS011;13837;48.562;12.108;2023-08-17T03:56:55;19.65;;;13.63;;
26062;SDS011;13837;48.562;12.108;2023-08-17T03:59:21;14.65;;;13.15;;
26062;SDS011;13837;48.562;12.108;2023-08-17T04:01:47;14.57;;;13.07;;
26062;SDS011;13837;48.562;12.108;2023-08-17T04:04:13;39.30;;;28.33;;
26062;SDS011;13837;48.562;12.108;2023-08-17T04:06:40;78.75;;;52.30;;
26062;SDS011;13837;48.562;12.108;2023-08-17T04:09:06;102.45;;;67.50;;
26062;SDS011;13837;48.562;12.108;2023-08-17T04:11:34;99.15;;;66.32;;
26062;SDS011;13837;48.562;12.108;2023-08-17T04:14:01;39.10;;;27.52;;
26062;SDS011;13837;48.562;12.108;2023-08-17T04:16:27;17.05;;;15.25;;
26062;SDS011;13837;48.562;12.108;2023-08-17T04:18:54;15.75;;;14.05;;
26062;SDS011;13837;48.562;12.108;2023-08-17T04:21:20;15.00;;;13.52;;
26062;SDS011;13837;48.562;12.108;2023-08-17T04:23:46;72.45;;;38.58;;
26062;SDS011;13837;48.562;12.108;2023-08-17T04:26:12;37.20;;;24.58;;
26062;SDS011;13837;48.562;12.108;2023-08-17T04:28:38;26.08;;;18.95;;
26062;SDS011;13837;48.562;12.108;2023-08-17T04:31:04;53.17;;;31.40;;
26062;SDS011;13837;48.562;12.108;2023-08-17T04:33:35;54.72;;;31.90;;
26062;SDS011;13837;48.562;12.108;2023-08-17T04:36:01;38.30;;;25.35;;
26062;SDS011;13837;48.562;12.108;2023-08-17T04:38:27;21.50;;;18.38;;
26062;SDS011;13837;48.562;12.108;2023-08-17T04:40:54;21.08;;;16.85;;
26062;SDS011;13837;48.562;12.108;2023-08-17T04:43:20;18.83;;;16.35;;
26062;SDS011;13837;48.562;12.108;2023-08-17T04:45:47;16.50;;;14.90;;
26062;SDS011;13837;48.562;12.108;2023-08-17T04:48:14;17.08;;;15.27;;
26062;SDS011;13837;48.562;12.108;2023-08-17T04:50:40;18.40;;;15.48;;
26062;SDS011;13837;48.562;12.108;2023-08-17T04:53:06;18.80;;;15.35;;
26062;SDS011;13837;48.562;12.108;2023-08-17T04:55:33;17.65;;;15.75;;
26062;SDS011;13837;48.562;12.108;2023-08-17T04:57:59;15.35;;;13.80;;
26062;SDS011;13837;48.562;12.108;2023-08-17T05:00:26;16.23;;;13.90;;
26062;SDS011;13837;48.562;12.108;2023-08-17T05:02:56;15.75;;;14.07;;
26062;SDS011;13837;48.562;12.108;2023-08-17T05:05:25;18.20;;;16.30;;
26062;SDS011;13837;48.562;12.108;2023-08-17T05:07:52;16.77;;;15.02;;
26062;SDS011;13837;48.562;12.108;2023-08-17T05:10:18;18.05;;;16.17;;
26062;SDS011;13837;48.562;12.108;2023-08-17T05:12:45;17.95;;;16.10;;
26062;SDS011;13837;48.562;12.108;2023-08-17T05:15:12;17.38;;;15.48;;
26062;SDS011;13837;48.562;12.108;2023-08-17T05:17:39;16.23;;;14.60;;
26062;SDS011;13837;48.562;12.108;2023-08-17T05:20:05;16.27;;;14.57;;
26062;SDS011;13837;48.562;12.108;2023-08-17T05:22:33;17.23;;;15.40;;
26062;SDS011;13837;48.562;12.108;2023-08-17T05:24:59;16.95;;;15.25;;
26062;SDS011;13837;48.562;12.108;2023-08-17T05:27:26;19.55;;;16.42;;
26062;SDS011;13837;48.562;12.108;2023-08-17T05:29:52;16.95;;;15.23;;
26062;SDS011;13837;48.562;12.108;2023-08-17T05:32:18;18.27;;;16.15;;
26062;SDS011;13837;48.562;12.108;2023-08-17T05:34:46;18.10;;;16.13;;
26062;SDS011;13837;48.562;12.108;2023-08-17T05:37:12;18.30;;;16.40;;
26062;SDS011;13837;48.562;12.108;2023-08-17T05:39:40;19.00;;;17.08;;
26062;SDS011;13837;48.562;12.108;2023-08-17T05:42:06;18.77;;;16.77;;
26062;SDS011;13837;48.562;12.108;2023-08-17T05:44:32;19.50;;;17.50;;
26062;SDS011;13837;48.562;12.108;2023-08-17T05:46:58;19.58;;;17.48;;
26062;SDS011;13837;48.562;12.108;2023-08-17T05:49:25;19.63;;;17.48;;
26062;SDS011;13837;48.562;12.108;2023-08-17T05:51:51;19.42;;;17.33;;
26062;SDS011;13837;48.562;12.108;2023-08-17T05:54:17;19.52;;;17.50;;
26062;SDS011;13837;48.562;12.108;2023-08-17T05:56:43;18.85;;;16.83;;
26062;SDS011;13837;48.562;12.108;2023-08-17T05:59:12;20.33;;;16.45;;
26062;SDS011;13837;48.562;12.108;2023-08-17T06:01:39;19.30;;;17.15;;
26062;SDS011;13837;48.562;12.108;2023-08-17T06:04:05;18.42;;;16.55;;
26062;SDS011;13837;48.562;12.108;2023-08-17T06:06:31;19.05;;;17.05;;
26062;SDS011;13837;48.562;12.108;2023-08-17T06:08:57;20.05;;;17.95;;
26062;SDS011;13837;48.562;12.108;2023-08-17T06:11:23;19.40;;;17.30;;
26062;SDS011;13837;48.562;12.108;2023-08-17T06:13:49;18.67;;;16.77;;
26062;SDS011;13837;48.562;12.108;2023-08-17T06:16:16;19.90;;;17.05;;
26062;SDS011;13837;48.562;12.108;2023-08-17T06:18:42;18.30;;;16.40;;
26062;SDS011;13837;48.562;12.108;2023-08-17T06:21:08;19.88;;;17.52;;
26062;SDS011;13837;48.562;12.108;2023-08-17T06:23:34;18.88;;;16.88;;
26062;SDS011;13837;48.562;12.108;2023-08-17T06:26:00;20.02;;;16.63;;
26062;SDS011;13837;48.562;12.108;2023-08-17T06:28:26;21.35;;;15.85;;
26062;SDS011;13837;48.562;12.108;2023-08-17T06:30:53;17.52;;;15.68;;
26062;SDS011;13837;48.562;12.108;2023-08-17T06:33:20;17.83;;;15.70;;
26062;SDS011;13837;48.562;12.108;2023-08-17T06:35:47;19.33;;;15.02;;
26062;SDS011;13837;48.562;12.108;2023-08-17T06:38:13;17.25;;;15.25;;
26062;SDS011;13837;48.562;12.108;2023-08-17T06:40:39;15.02;;;13.45;;
26062;SDS011;13837;48.562;12.108;2023-08-17T06:43:05;15.50;;;13.80;;
26062;SDS011;13837;48.562;12.108;2023-08-17T06:45:31;16.42;;;14.35;;
26062;SDS011;13837;48.562;12.108;2023-08-17T06:47:58;16.77;;;13.80;;
26062;SDS011;13837;48.562;12.108;2023-08-17T06:50:24;17.17;;;14.10;;
26062;SDS011;13837;48.562;12.108;2023-08-17T06:52:51;16.80;;;13.45;;
26062;SDS011;13837;48.562;12.108;2023-08-17T06:55:17;15.13;;;13.50;;
26062;SDS011;13837;48.562;12.108;2023-08-17T06:57:44;14.32;;;12.80;;
26062;SDS011;13837;48.562;12.108;2023-08-17T07:00:10;16.27;;;13.18;;
26062;SDS011;13837;48.562;12.108;2023-08-17T07:02:37;14.02;;;12.25;;
26062;SDS011;13837;48.562;12.108;2023-08-17T07:05:03;14.13;;;12.00;;
26062;SDS011;13837;48.562;12.108;2023-08-17T07:07:29;16.00;;;13.13;;
26062;SDS011;13837;48.562;12.108;2023-08-17T07:09:58;13.68;;;12.23;;
26062;SDS011;13837;48.562;12.108;2023-08-17T07:12:25;18.55;;;13.00;;
26062;SDS011;13837;48.562;12.108;2023-08-17T07:14:51;13.68;;;12.25;;
26062;SDS011;13837;48.562;12.108;2023-08-17T07:17:17;13.88;;;12.43;;
26062;SDS011;13837;48.562;12.108;2023-08-17T07:19:43;14.43;;;12.25;;
26062;SDS011;13837;48.562;12.108;2023-08-17T07:22:09;14.00;;;11.75;;
26062;SDS011;13837;48.562;12.108;2023-08-17T07:24:35;13.45;;;11.85;;
26062;SDS011;13837;48.562;12.108;2023-08-17T07:27:01;12.75;;;11.45;;
26062;SDS011;13837;48.562;12.108;2023-08-17T07:29:27;12.20;;;11.00;;
26062;SDS011;13837;48.562;12.108;2023-08-17T07:31:53;14.73;;;12.15;;
26062;SDS011;13837;48.562;12.108;2023-08-17T07:34:19;13.10;;;11.70;;
26062;SDS011;13837;48.562;12.108;2023-08-17T07:36:45;14.15;;;12.63;;
26062;SDS011;13837;48.562;12.108;2023-08-17T07:39:11;14.02;;;12.25;;
26062;SDS011;13837;48.562;12.108;2023-08-17T07:41:38;15.07;;;12.98;;
26062;SDS011;13837;48.562;12.108;2023-08-17T07:44:04;12.75;;;11.50;;
26062;SDS011;13837;48.562;12.108;2023-08-17T07:46:30;14.02;;;11.65;;
26062;SDS011;13837;48.562;12.108;2023-08-17T07:48:56;16.08;;;13.02;;
26062;SDS011;13837;48.562;12.108;2023-08-17T07:51:22;14.50;;;11.40;;
26062;SDS011;13837;48.562;12.108;2023-08-17T07:53:48;14.88;;;12.43;;
26062;SDS011;13837;48.562;12.108;2023-08-17T07:56:14;15.80;;;12.00;;
26062;SDS011;13837;48.562;12.108;2023-08-17T07:58:40;15.43;;;11.63;;
26062;SDS011;13837;48.562;12.108;2023-08-17T08:01:06;13.18;;;11.77;;
26062;SDS011;13837;48.562;12.108;2023-08-17T08:03:32;12.38;;;10.98;;
26062;SDS011;13837;48.562;12.108;2023-08-17T08:05:58;13.02;;;11.73;;
26062;SDS011;13837;48.562;12.108;2023-08-17T08:08:24;12.80;;;11.45;;
26062;SDS011;13837;48.562;12.108;2023-08-17T08:10:52;13.13;;;11.82;;
26062;SDS011;13837;48.562;12.108;2023-08-17T08:13:19;12.75;;;11.48;;
26062;SDS011;13837;48.562;12.108;2023-08-17T08:15:45;12.57;;;10.88;;
26062;SDS011;13837;48.562;12.108;2023-08-17T08:18:11;12.18;;;10.88;;
26062;SDS011;13837;48.562;12.108;2023-08-17T08:20:37;11.25;;;10.15;;
26062;SDS011;13837;48.562;12.108;2023-08-17T08:23:03;15.77;;;10.82;;
26062;SDS011;13837;48.562;12.108;2023-08-17T08:25:29;11.73;;;10.55;;
26062;SDS011;13837;48.562;12.108;2023-08-17T08:27:55;11.93;;;10.73;;
26062;SDS011;13837;48.562;12.108;2023-08-17T08:30:21;10.93;;;9.93;;
26062;SDS011;13837;48.562;12.108;2023-08-17T08:32:48;12.23;;;10.65;;
26062;SDS011;13837;48.562;12.108;2023-08-17T08:35:15;14.55;;;10.02;;
26062;SDS011;13837;48.562;12.108;2023-08-17T08:37:41;12.25;;;10.85;;
26062;SDS011;13837;48.562;12.108;2023-08-17T08:40:10;11.38;;;10.20;;
26062;SDS011;13837;48.562;12.108;2023-08-17T08:42:38;11.02;;;10.00;;
26062;SDS011;13837;48.562;12.108;2023-08-17T08:45:04;13.75;;;9.63;;
26062;SDS011;13837;48.562;12.108;2023-08-17T08:47:30;11.02;;;9.82;;
26062;SDS011;13837;48.562;12.108;2023-08-17T08:50:01;11.18;;;10.07;;
26062;SDS011;13837;48.562;12.108;2023-08-17T08:52:34;11.73;;;10.30;;
26062;SDS011;13837;48.562;12.108;2023-08-17T08:55:08;10.13;;;9.23;;
26062;SDS011;13837;48.562;12.108;2023-08-17T08:57:36;12.13;;;10.93;;
26062;SDS011;13837;48.562;12.108;2023-08-17T09:00:03;10.73;;;9.60;;
26062;SDS011;13837;48.562;12.108;2023-08-17T09:02:29;11.05;;;9.98;;
26062;SDS011;13837;48.562;12.108;2023-08-17T09:04:55;11.98;;;10.77;;
26062;SDS011;13837;48.562;12.108;2023-08-17T09:07:22;11.32;;;10.25;;
26062;SDS011;13837;48.562;12.108;2023-08-17T09:09:49;12.52;;;11.23;;
26062;SDS011;13837;48.562;12.108;2023-08-17T09:12:15;11.57;;;10.38;;
26062;SDS011;13837;48.562;12.108;2023-08-17T09:14:41;12.05;;;10.40;;
26062;SDS011;13837;48.562;12.108;2023-08-17T09:17:07;11.32;;;10.15;;
26062;SDS011;13837;48.562;12.108;2023-08-17T09:19:33;11.13;;;9.93;;
26062;SDS011;13837;48.562;12.108;2023-08-17T09:22:00;10.70;;;9.60;;
26062;SDS011;13837;48.562;12.108;2023-08-17T09:24:36;12.20;;;10.90;;
26062;SDS011;13837;48.562;12.108;2023-08-17T09:27:02;11.73;;;10.52;;
26062;SDS011;13837;48.562;12.108;2023-08-17T09:29:28;12.70;;;11.40;;
26062;SDS011;13837;48.562;12.108;2023-08-17T09:32:08;12.95;;;10.10;;
26062;SDS011;13837;48.562;12.108;2023-08-17T09:34:35;10.00;;;9.00;;
26062;SDS011;13837;48.562;12.108;2023-08-17T09:37:04;11.18;;;9.68;;
26062;SDS011;13837;48.562;12.108;2023-08-17T09:39:31;10.68;;;9.68;;
26062;SDS011;13837;48.562;12.108;2023-08-17T09:41:57;10.52;;;9.00;;
26062;SDS011;13837;48.562;12.108;2023-08-17T09:44:23;9.45;;;8.65;;
26062;SDS011;13837;48.562;12.108;2023-08-17T09:46:49;11.68;;;9.70;;
26062;SDS011;13837;48.562;12.108;2023-08-17T09:49:17;10.88;;;9.73;;
26062;SDS011;13837;48.562;12.108;2023-08-17T09:54:28;9.55;;;8.65;;
26062;SDS011;13837;48.562;12.108;2023-08-17T09:56:56;10.25;;;8.80;;
26062;SDS011;13837;48.562;12.108;2023-08-17T09:59:22;9.55;;;8.65;;
26062;SDS011;13837;48.562;12.108;2023-08-17T10:01:49;10.52;;;9.52;;
26062;SDS011;13837;48.562;12.108;2023-08-17T10:04:18;11.82;;;9.23;;
26062;SDS011;13837;48.562;12.108;2023-08-17T10:06:46;10.50;;;9.40;;
26062;SDS011;13837;48.562;12.108;2023-08-17T10:09:13;10.30;;;9.30;;
26062;SDS011;13837;48.562;12.108;2023-08-17T10:11:40;9.60;;;8.80;;
26062;SDS011;13837;48.562;12.108;2023-08-17T10:14:09;10.27;;;9.27;;
26062;SDS011;13837;48.562;12.108;2023-08-17T10:19:06;9.52;;;8.73;;
26062;SDS011;13837;48.562;12.108;2023-08-17T10:21:43;10.13;;;8.38;;
26062;SDS011;13837;48.562;12.108;2023-08-17T10:24:11;9.65;;;8.70;;
26062;SDS011;13837;48.562;12.108;2023-08-17T10:26:38;9.40;;;8.60;;
26062;SDS011;13837;48.562;12.108;2023-08-17T10:29:04;9.80;;;8.80;;
26062;SDS011;13837;48.562;12.108;2023-08-17T10:31:34;9.70;;;8.80;;
26062;SDS011;13837;48.562;12.108;2023-08-17T10:34:00;11.30;;;8.77;;
26062;SDS011;13837;48.562;12.108;2023-08-17T10:36:27;9.18;;;8.35;;
26062;SDS011;13837;48.562;12.108;2023-08-17T10:41:46;10.85;;;8.57;;
26062;SDS011;13837;48.562;12.108;2023-08-17T10:44:13;9.77;;;8.82;;
26062;SDS011;13837;48.562;12.108;2023-08-17T10:46:40;11.30;;;9.10;;
26062;SDS011;13837;48.562;12.108;2023-08-17T10:49:24;10.02;;;9.13;;
26062;SDS011;13837;48.562;12.108;2023-08-17T10:52:00;9.07;;;8.18;;
26062;SDS011;13837;48.562;12.108;2023-08-17T10:54:35;10.38;;;8.40;;
26062;SDS011;13837;48.562;12.108;2023-08-17T10:57:23;9.73;;;8.68;;
26062;SDS011;13837;48.562;12.108;2023-08-17T11:00:04;9.57;;;8.57;;
26062;SDS011;13837;48.562;12.108;2023-08-17T11:02:32;9.88;;;8.93;;
26062;SDS011;13837;48.562;12.108;2023-08-17T11:04:58;9.63;;;8.73;;
26062;SDS011;13837;48.562;12.108;2023-08-17T11:07:24;9.23;;;8.43;;
26062;SDS011;13837;48.562;12.108;2023-08-17T11:09:53;10.10;;;8.82;;
26062;SDS011;13837;48.562;12.108;2023-08-17T11:12:25;9.93;;;8.35;;
26062;SDS011;13837;48.562;12.108;2023-08-17T11:14:51;9.40;;;8.48;;
26062;SDS011;13837;48.562;12.108;2023-08-17T11:17:20;8.75;;;7.88;;
26062;SDS011;13837;48.562;12.108;2023-08-17T11:19:46;9.45;;;8.40;;
26062;SDS011;13837;48.562;12.108;2023-08-17T11:22:16;8.95;;;7.65;;
26062;SDS011;13837;48.562;12.108;2023-08-17T11:24:42;8.85;;;7.95;;
26062;SDS011;13837;48.562;12.108;2023-08-17T11:27:08;8.95;;;7.85;;
26062;SDS011;13837;48.562;12.108;2023-08-17T11:29:35;8.15;;;7.35;;
26062;SDS011;13837;48.562;12.108;2023-08-17T11:32:01;8.88;;;7.65;;
26062;SDS011;13837;48.562;12.108;2023-08-17T11:34:27;10.82;;;7.65;;
26062;SDS011;13837;48.562;12.108;2023-08-17T11:36:56;8.75;;;7.60;;
26062;SDS011;13837;48.562;12.108;2023-08-17T11:39:22;7.22;;;6.53;;
26062;SDS011;13837;48.562;12.108;2023-08-17T11:41:48;9.43;;;7.63;;
26062;SDS011;13837;48.562;12.108;2023-08-17T11:44:17;9.23;;;8.00;;
26062;SDS011;13837;48.562;12.108;2023-08-17T11:46:46;8.60;;;7.90;;
26062;SDS011;13837;48.562;12.108;2023-08-17T11:49:12;9.10;;;7.75;;
26062;SDS011;13837;48.562;12.108;2023-08-17T11:51:38;8.38;;;7.43;;
26062;SDS011;13837;48.562;12.108;2023-08-17T11:54:05;9.10;;;7.18;;
26062;SDS011;13837;48.562;12.108;2023-08-17T11:56:33;7.18;;;6.57;;
26062;SDS011;13837;48.562;12.108;2023-08-17T11:58:59;7.03;;;6.53;;
26062;SDS011;13837;48.562;12.108;2023-08-17T12:01:33;10.32;;;7.72;;
26062;SDS011;13837;48.562;12.108;2023-08-17T12:04:00;7.85;;;7.10;;
26062;SDS011;13837;48.562;12.108;2023-08-17T12:06:26;7.75;;;7.03;;
26062;SDS011;13837;48.562;12.108;2023-08-17T12:08:52;7.22;;;6.60;;
26062;SDS011;13837;48.562;12.108;2023-08-17T12:11:18;7.82;;;7.13;;
26062;SDS011;13837;48.562;12.108;2023-08-17T12:13:48;7.45;;;6.68;;
26062;SDS011;13837;48.562;12.108;2023-08-17T12:16:16;6.95;;;6.38;;
26062;SDS011;13837;48.562;12.108;2023-08-17T12:18:47;8.13;;;7.22;;
26062;SDS011;13837;48.562;12.108;2023-08-17T12:21:13;8.35;;;7.15;;
26062;SDS011;13837;48.562;12.108;2023-08-17T12:23:39;7.32;;;6.60;;
26062;SDS011;13837;48.562;12.108;2023-08-17T12:26:05;7.43;;;6.82;;
26062;SDS011;13837;48.562;12.108;2023-08-17T12:28:32;8.00;;;6.85;;
26062;SDS011;13837;48.562;12.108;2023-08-17T12:31:01;8.48;;;6.97;;
26062;SDS011;13837;48.562;12.108;2023-08-17T12:33:27;7.35;;;6.72;;
26062;SDS011;13837;48.562;12.108;2023-08-17T12:35:54;7.40;;;6.70;;
26062;SDS011;13837;48.562;12.108;2023-08-17T12:38:20;7.28;;;6.65;;
26062;SDS011;13837;48.562;12.108;2023-08-17T12:40:46;7.50;;;6.80;;
26062;SDS011;13837;48.562;12.108;2023-08-17T12:43:12;7.50;;;6.75;;
26062;SDS011;13837;48.562;12.108;2023-08-17T12:45:38;8.82;;;7.32;;
26062;SDS011;13837;48.562;12.108;2023-08-17T12:48:04;10.55;;;8.70;;
26062;SDS011;13837;48.562;12.108;2023-08-17T12:50:30;13.65;;;12.45;;
26062;SDS011;13837;48.562;12.108;2023-08-17T12:52:56;7.57;;;6.90;;
26062;SDS011;13837;48.562;12.108;2023-08-17T12:55:22;10.43;;;7.93;;
26062;SDS011;13837;48.562;12.108;2023-08-17T12:57:48;9.52;;;8.63;;
26062;SDS011;13837;48.562;12.108;2023-08-17T13:00:14;7.88;;;7.18;;
26062;SDS011;13837;48.562;12.108;2023-08-17T13:02:41;6.95;;;6.25;;
26062;SDS011;13837;48.562;12.108;2023-08-17T13:05:07;7.35;;;6.75;;
26062;SDS011;13837;48.562;12.108;2023-08-17T13:07:33;9.52;;;8.63;;
26062;SDS011;13837;48.562;12.108;2023-08-17T13:09:59;8.77;;;7.45;;
26062;SDS011;13837;48.562;12.108;2023-08-17T13:12:25;7.18;;;6.55;;
26062;SDS011;13837;48.562;12.108;2023-08-17T13:14:51;9.07;;;8.23;;
26062;SDS011;13837;48.562;12.108;2023-08-17T13:17:17;9.57;;;8.00;;
26062;SDS011;13837;48.562;12.108;2023-08-17T13:19:43;10.40;;;6.82;;
26062;SDS011;13837;48.562;12.108;2023-08-17T13:22:09;6.78;;;6.28;;
26062;SDS011;13837;48.562;12.108;2023-08-17T13:24:35;7.60;;;6.80;;
26062;SDS011;13837;48.562;12.108;2023-08-17T13:27:01;8.05;;;6.72;;
26062;SDS011;13837;48.562;12.108;2023-08-17T13:29:27;7.47;;;6.90;;
26062;SDS011;13837;48.562;12.108;2023-08-17T13:31:53;7.25;;;6.53;;
26062;SDS011;13837;48.562;12.108;2023-08-17T13:34:19;6.72;;;6.22;;
26062;SDS011;13837;48.562;12.108;2023-08-17T13:36:46;7.13;;;6.43;;
26062;SDS011;13837;48.562;12.108;2023-08-17T13:39:12;8.82;;;6.18;;
26062;SDS011;13837;48.562;12.108;2023-08-17T13:41:38;8.45;;;7.38;;
26062;SDS011;13837;48.562;12.108;2023-08-17T13:44:05;9.83;;;6.67;;
26062;SDS011;13837;48.562;12.108;2023-08-17T13:46:31;6.50;;;5.90;;
26062;SDS011;13837;48.562;12.108;2023-08-17T13:48:57;7.78;;;7.13;;
26062;SDS011;13837;48.562;12.108;2023-08-17T13:51:24;7.50;;;6.75;;
26062;SDS011;13837;48.562;12.108;2023-08-17T13:53:50;7.43;;;6.63;;
26062;SDS011;13837;48.562;12.108;2023-08-17T13:56:16;7.22;;;6.40;;
26062;SDS011;13837;48.562;12.108;2023-08-17T13:58:42;6.88;;;6.28;;
26062;SDS011;13837;48.562;12.108;2023-08-17T14:01:08;7.32;;;6.72;;
26062;SDS011;13837;48.562;12.108;2023-08-17T14:03:36;6.95;;;6.25;;
26062;SDS011;13837;48.562;12.108;2023-08-17T14:06:02;7.15;;;6.50;;
26062;SDS011;13837;48.562;12.108;2023-08-17T14:08:28;6.80;;;6.30;;
26062;SDS011;13837;48.562;12.108;2023-08-17T14:10:54;7.20;;;6.60;;
26062;SDS011;13837;48.562;12.108;2023-08-17T14:13:20;7.10;;;6.50;;
26062;SDS011;13837;48.562;12.108;2023-08-17T14:15:46;10.35;;;8.93;;
26062;SDS011;13837;48.562;12.108;2023-08-17T14:18:12;7.53;;;6.63;;
26062;SDS011;13837;48.562;12.108;2023-08-17T14:20:38;6.80;;;6.20;;
26062;SDS011;13837;48.562;12.108;2023-08-17T14:23:04;6.22;;;5.70;;
26062;SDS011;13837;48.562;12.108;2023-08-17T14:25:30;6.35;;;5.85;;
26062;SDS011;13837;48.562;12.108;2023-08-17T14:27:57;6.70;;;6.10;;
26062;SDS011;13837;48.562;12.108;2023-08-17T14:30:24;7.95;;;7.30;;